createdAt,value
2023-06-11T00:03:54.539Z,98898.33
2023-06-11T00:08:56.831Z,98892.83
2023-06-11T00:13:58.578Z,98890.75
2023-06-11T00:19:00.336Z,98895.75
2023-06-11T00:24:02.842Z,98897.30
2023-06-11T00:29:04.842Z,98900.05
2023-06-11T00:34:06.840Z,98896.44
2023-06-11T00:39:08.697Z,98897.30
2023-06-11T00:44:10.547Z,98897.13
2023-06-11T00:49:12.895Z,98902.65
2023-06-11T00:54:17.670Z,98907.30
2023-06-11T00:59:21.060Z,98907.83
2023-06-11T01:04:24.832Z,98904.36
2023-06-11T01:09:28.811Z,98902.63
2023-06-11T01:14:33.553Z,98899.16
2023-06-11T01:19:38.533Z,98899.64
2023-06-11T01:25:09.996Z,98904.07
2023-06-11T01:30:21.821Z,98903.90
2023-06-11T01:35:25.651Z,98910.96
2023-06-11T01:40:28.724Z,98910.28
2023-06-11T01:45:34.021Z,98912.16
2023-06-11T01:50:36.413Z,98913.90
2023-06-11T01:55:38.256Z,98914.94
2023-06-11T02:00:40.132Z,98916.13
2023-06-11T02:05:41.830Z,98917.84
2023-06-11T02:10:46.581Z,98922.48
2023-06-11T02:15:48.310Z,98924.55
2023-06-11T02:20:50.540Z,98926.27
2023-06-11T02:25:54.513Z,98928.89
2023-06-11T02:30:56.253Z,98929.09
2023-06-11T02:35:58.055Z,98925.27
2023-06-11T02:40:59.834Z,98929.21
2023-06-11T02:46:01.734Z,98924.90
2023-06-11T02:51:03.530Z,98923.48
2023-06-11T02:56:05.433Z,98930.38
2023-06-11T03:01:07.197Z,98933.03
2023-06-11T03:06:09.788Z,98933.48
2023-06-11T03:11:11.884Z,98933.87
2023-06-11T03:16:18.899Z,98932.34
2023-06-11T03:21:20.979Z,98936.98
2023-06-11T03:26:23.220Z,98935.18
2023-06-11T03:31:25.395Z,98943.20
2023-06-11T03:36:27.522Z,98948.37
2023-06-11T03:41:30.108Z,98951.10
2023-06-11T03:46:32.656Z,98958.45
2023-06-11T03:51:35.317Z,98966.33
2023-06-11T03:56:38.035Z,98971.30
2023-06-11T04:07:13.671Z,98975.54
2023-06-11T04:12:16.024Z,98977.81
2023-06-11T04:17:19.048Z,98978.48
2023-06-11T04:22:22.050Z,98982.09
2023-06-11T04:27:24.140Z,98984.81
2023-06-11T04:32:28.057Z,98987.70
2023-06-11T04:37:32.076Z,98989.00
2023-06-11T04:42:35.989Z,98988.78
2023-06-11T04:47:38.772Z,98985.44
2023-06-11T04:52:44.040Z,98980.66
2023-06-11T04:57:47.535Z,98983.20
2023-06-11T05:02:50.951Z,98989.10
2023-06-11T05:07:52.961Z,98990.47
2023-06-11T05:12:55.522Z,98989.20
2023-06-11T05:17:59.255Z,98989.14
2023-06-11T05:23:03.871Z,98997.65
2023-06-11T05:28:08.846Z,98998.61
2023-06-11T05:33:11.716Z,98996.96
2023-06-11T05:38:14.538Z,99004.67
2023-06-11T05:43:17.826Z,99009.98
2023-06-11T05:48:20.036Z,99013.00
2023-06-11T05:53:23.083Z,99023.44
2023-06-11T05:58:25.331Z,99033.70
2023-06-11T06:03:27.409Z,99033.22
2023-06-11T06:08:30.900Z,99038.73
2023-06-11T06:13:33.408Z,99034.20
2023-06-11T06:18:40.087Z,99037.17
2023-06-11T06:23:42.056Z,99037.25
2023-06-11T06:28:45.593Z,99040.28
2023-06-11T06:33:48.215Z,99039.66
2023-06-11T06:38:50.628Z,99038.94
2023-06-11T06:43:53.913Z,99038.13
2023-06-11T06:48:58.083Z,99041.76
2023-06-11T06:54:01.036Z,99051.45
2023-06-11T06:59:02.927Z,99042.50
2023-06-11T07:04:06.068Z,99046.02
2023-06-11T07:09:08.055Z,99044.15
2023-06-11T07:14:10.157Z,99040.13
2023-06-11T07:19:12.161Z,99035.76
2023-06-11T07:24:14.500Z,99036.77
2023-06-11T07:29:16.551Z,99037.11
2023-06-11T07:34:20.757Z,99043.89
2023-06-11T07:39:23.272Z,99037.73
2023-06-11T07:44:26.125Z,99038.83
2023-06-11T07:49:28.057Z,99045.24
2023-06-11T07:54:30.656Z,99043.45
2023-06-11T07:59:32.322Z,99043.44
2023-06-11T08:04:34.385Z,99039.98
2023-06-11T08:09:37.537Z,99041.39
2023-06-11T08:14:39.302Z,99041.40
2023-06-11T08:19:41.031Z,99033.34
2023-06-11T08:24:42.696Z,99031.14
2023-06-11T08:29:44.351Z,99038.55
2023-06-11T08:34:46.122Z,99030.81
2023-06-11T08:39:47.834Z,99032.48
2023-06-11T08:44:49.954Z,99031.21
2023-06-11T08:49:52.670Z,99032.45
2023-06-11T08:54:55.049Z,99027.70
2023-06-11T08:59:57.251Z,99023.23
2023-06-11T09:04:59.353Z,99025.27
2023-06-11T09:10:08.290Z,99031.71
2023-06-11T09:15:10.865Z,99023.62
2023-06-11T09:20:14.605Z,99023.18
2023-06-11T09:25:19.773Z,99014.24
2023-06-11T09:30:21.840Z,99015.60
2023-06-11T09:35:23.840Z,99009.25
2023-06-11T09:40:25.740Z,99012.67
2023-06-11T09:45:27.989Z,99011.67
2023-06-11T09:50:33.510Z,99014.30
2023-06-11T09:55:38.502Z,99021.42
2023-06-11T10:00:40.888Z,99015.58
2023-06-11T10:05:43.199Z,99019.38
2023-06-11T10:10:47.030Z,99022.23
2023-06-11T10:15:49.681Z,99020.64
2023-06-11T10:20:55.980Z,99017.42
2023-06-11T10:25:59.118Z,99031.20
2023-06-11T10:31:01.099Z,99024.41
2023-06-11T10:36:03.227Z,99015.90
2023-06-11T10:41:06.018Z,99010.61
2023-06-11T10:46:13.556Z,99011.85
2023-06-11T10:51:15.536Z,99011.63
2023-06-11T10:56:22.341Z,99008.70
2023-06-11T11:01:24.284Z,99007.69
2023-06-11T11:06:28.120Z,99005.02
2023-06-11T11:11:30.241Z,99000.08
2023-06-11T11:16:32.117Z,99003.63
2023-06-11T11:21:33.944Z,99005.80
2023-06-11T11:26:42.825Z,99000.36
2023-06-11T11:31:46.280Z,98995.28
2023-06-11T11:36:48.116Z,98991.52
2023-06-11T11:41:51.392Z,98985.20
2023-06-11T11:46:57.480Z,98989.55
2023-06-11T11:52:02.040Z,98986.02
2023-06-11T11:57:07.980Z,98984.74
2023-06-11T12:02:10.455Z,98985.58
2023-06-11T12:07:14.604Z,98990.84
2023-06-11T12:12:16.520Z,98986.54
2023-06-11T12:17:18.285Z,98981.13
2023-06-11T12:22:20.793Z,98978.06
2023-06-11T12:27:24.210Z,98971.05
2023-06-11T12:32:26.509Z,98973.38
2023-06-11T12:37:29.273Z,98972.91
2023-06-11T12:42:33.475Z,98969.94
2023-06-11T12:47:36.104Z,98968.16
2023-06-11T12:52:40.485Z,98977.87
2023-06-11T12:57:42.339Z,98973.01
2023-06-11T13:02:45.353Z,98966.27
2023-06-11T13:07:48.465Z,98958.17
2023-06-11T13:12:52.829Z,98955.80
2023-06-11T13:17:54.645Z,98959.91
2023-06-11T13:22:56.455Z,98961.93
2023-06-11T13:27:58.260Z,98957.05
2023-06-11T13:33:01.646Z,98946.06
2023-06-11T13:38:03.388Z,98944.65
2023-06-11T13:43:05.180Z,98954.38
2023-06-11T13:48:14.773Z,98954.39
2023-06-11T13:53:17.934Z,98954.35
2023-06-11T13:58:22.158Z,98953.73
2023-06-11T14:03:23.899Z,98956.14
2023-06-11T14:08:25.611Z,98951.38
2023-06-11T14:13:27.460Z,98945.34
2023-06-11T14:18:29.206Z,98942.44
2023-06-11T14:23:30.899Z,98945.56
2023-06-11T14:28:32.779Z,98946.91
2023-06-11T14:33:34.478Z,98945.09
2023-06-11T14:38:36.235Z,98950.55
2023-06-11T14:43:37.937Z,98958.48
2023-06-11T14:48:39.624Z,98953.36
2023-06-11T14:53:41.368Z,98951.46
2023-06-11T14:58:47.624Z,98945.26
2023-06-11T15:03:49.405Z,98945.34
2023-06-11T15:08:51.698Z,98945.46
2023-06-11T15:13:53.465Z,98950.10
2023-06-11T15:18:56.142Z,98946.18
2023-06-11T15:23:58.063Z,98938.88
2023-06-11T15:29:00.191Z,98938.23
2023-06-11T15:34:01.981Z,98937.02
2023-06-11T15:39:03.878Z,98940.02
2023-06-11T15:44:05.791Z,98933.91
2023-06-11T15:49:07.482Z,98930.60
2023-06-11T15:54:09.465Z,98933.82
2023-06-11T15:59:11.295Z,98938.75
2023-06-11T16:04:14.284Z,98940.73
2023-06-11T16:09:16.573Z,98939.83
2023-06-11T16:14:20.101Z,98937.65
2023-06-11T16:19:21.940Z,98938.05
2023-06-11T16:24:23.690Z,98937.70
2023-06-11T16:29:25.458Z,98936.89
2023-06-11T16:34:27.191Z,98936.52
2023-06-11T16:39:38.558Z,98940.90
2023-06-11T16:44:40.441Z,98945.15
2023-06-11T16:49:42.254Z,98943.39
2023-06-11T16:54:44.148Z,98948.19
2023-06-11T16:59:45.944Z,98952.73
2023-06-11T17:04:47.691Z,98952.64
2023-06-11T17:09:49.558Z,98957.54
2023-06-11T17:14:54.284Z,98957.42
2023-06-11T17:19:56.305Z,98963.70
2023-06-11T17:24:58.317Z,98959.48
2023-06-11T17:30:00.022Z,98963.25
2023-06-11T17:35:03.936Z,98964.79
2023-06-11T17:40:07.621Z,98968.73
2023-06-11T17:45:12.492Z,98967.46
2023-06-11T17:50:14.461Z,98973.42
2023-06-11T17:55:16.751Z,98970.09
2023-06-11T18:00:18.923Z,98969.02
2023-06-11T18:05:20.804Z,98969.55
2023-06-11T18:10:22.784Z,98970.36
2023-06-11T18:15:33.177Z,98976.86
2023-06-11T18:20:37.051Z,98980.41
2023-06-11T18:25:38.791Z,98980.55
2023-06-11T18:30:40.799Z,98982.38
2023-06-11T18:35:42.825Z,98991.27
2023-06-11T18:40:44.527Z,98997.92
2023-06-11T18:45:46.218Z,99002.63
2023-06-11T18:50:48.060Z,99008.08
2023-06-11T18:55:50.056Z,99016.84
2023-06-11T19:00:51.947Z,99023.20
2023-06-11T19:05:53.741Z,99026.06
2023-06-11T19:10:55.633Z,99028.55
2023-06-11T19:15:57.874Z,99033.44
2023-06-11T19:20:59.556Z,99037.27
2023-06-11T19:26:01.352Z,99044.23
2023-06-11T19:31:03.110Z,99048.13
2023-06-11T19:36:05.392Z,99051.14
2023-06-11T19:41:07.207Z,99055.64
2023-06-11T19:46:08.990Z,99062.86
2023-06-11T19:51:12.173Z,99063.13
2023-06-11T19:56:18.070Z,99062.60
2023-06-11T20:01:21.248Z,99071.44
2023-06-11T20:06:23.047Z,99070.38
2023-06-11T20:11:24.796Z,99076.08
2023-06-11T20:16:27.526Z,99082.12
2023-06-11T20:21:29.429Z,99088.48
2023-06-11T20:26:31.671Z,99093.41
2023-06-11T20:31:34.629Z,99095.42
2023-06-11T20:36:36.773Z,99096.75
2023-06-11T20:41:38.598Z,99106.05
2023-06-11T20:46:40.759Z,99108.91
2023-06-11T20:51:42.520Z,99110.73
2023-06-11T20:56:44.250Z,99114.29
2023-06-11T21:01:46.196Z,99113.97
2023-06-11T21:06:47.967Z,99116.77
2023-06-11T21:11:50.084Z,99114.38
2023-06-11T21:16:52.337Z,99115.77
2023-06-11T21:21:54.147Z,99119.77
2023-06-11T21:26:55.905Z,99115.10
2023-06-11T21:31:57.751Z,99116.29
2023-06-11T21:36:59.643Z,99117.49
2023-06-11T21:42:01.422Z,99115.61
2023-06-11T21:47:03.494Z,99114.58
2023-06-11T21:52:06.876Z,99121.69
2023-06-11T21:57:09.764Z,99118.41
2023-06-11T22:02:12.479Z,99119.80
2023-06-11T22:07:14.203Z,99126.73
2023-06-11T22:12:16.020Z,99122.05
2023-06-11T22:17:18.402Z,99127.23
2023-06-11T22:22:20.513Z,99122.86
2023-06-11T22:27:23.006Z,99126.80
2023-06-11T22:32:24.757Z,99118.16
2023-06-11T22:37:26.459Z,99119.13
2023-06-11T22:42:28.158Z,99117.73
2023-06-11T22:47:30.273Z,99118.55
2023-06-11T22:52:39.692Z,99120.26
2023-06-11T22:57:42.124Z,99119.36
2023-06-11T23:02:45.606Z,99122.62
2023-06-11T23:07:47.658Z,99118.27
2023-06-11T23:12:49.931Z,99113.78
2023-06-11T23:17:54.844Z,99114.61
2023-06-11T23:22:57.451Z,99116.50
2023-06-11T23:28:00.006Z,99115.29
2023-06-11T23:33:03.536Z,99108.02
2023-06-11T23:38:07.244Z,99105.58
2023-06-11T23:43:08.991Z,99104.69
2023-06-11T23:48:10.761Z,99104.16
2023-06-11T23:53:13.798Z,99102.90
2023-06-11T23:58:22.318Z,99106.46
